AVA8544 SKAR-SKBO
Flight info
| Callsign | AVA8544 |
|---|---|
| Flight time | 0h 28m |
| Altitude | 19000 |
| Route | TOLIM2B TOLIM TOLIM5E |
| Aircraft | A320/M-SDE3FGHIRWY/LB1 |
Departure
| Time | 2026-04-25 20:23 |
|---|---|
| Airport | El Eden Airport (SKAR) |
Arrival
| Time | 2026-04-25 20:52 |
|---|---|
| Airport | El Dorado International Airport (SKBO) |
| Time | Latitude | Longitude | Altitude | Speed | Heading |
|---|---|---|---|---|---|
| 2026-04-25 19:56 | 4.45281 | -75.76758 | 3985 ft | 0 kts | 283° |
| 2026-04-25 20:15 | 4.45279 | -75.76748 | 3982 ft | 4 kts | 283° |
| 2026-04-25 20:15 | 4.45273 | -75.76725 | 3981 ft | 3 kts | 285° |
| 2026-04-25 20:16 | 4.45262 | -75.76708 | 3976 ft | 4 kts | 352° |
| 2026-04-25 20:16 | 4.45236 | -75.76710 | 3979 ft | 3 kts | 14° |
| 2026-04-25 20:16 | 4.45233 | -75.76711 | 3980 ft | 0 kts | 14° |
| 2026-04-25 20:19 | 4.45234 | -75.76710 | 3980 ft | 2 kts | 14° |
| 2026-04-25 20:19 | 4.45246 | -75.76707 | 3980 ft | 4 kts | 14° |
| 2026-04-25 20:19 | 4.45274 | -75.76700 | 3985 ft | 5 kts | 14° |
| 2026-04-25 20:19 | 4.45326 | -75.76686 | 3985 ft | 10 kts | 22° |
| 2026-04-25 20:20 | 4.45370 | -75.76635 | 3982 ft | 9 kts | 54° |
| 2026-04-25 20:20 | 4.45415 | -75.76579 | 3985 ft | 12 kts | 37° |
| 2026-04-25 20:20 | 4.45502 | -75.76556 | 3984 ft | 12 kts | 13° |
| 2026-04-25 20:20 | 4.45583 | -75.76536 | 3992 ft | 12 kts | 13° |
| 2026-04-25 20:21 | 4.45673 | -75.76515 | 3987 ft | 14 kts | 13° |
| 2026-04-25 20:21 | 4.45775 | -75.76490 | 3988 ft | 16 kts | 13° |
| 2026-04-25 20:21 | 4.45883 | -75.76465 | 3996 ft | 16 kts | 13° |
| 2026-04-25 20:21 | 4.45987 | -75.76439 | 3997 ft | 16 kts | 13° |
| 2026-04-25 20:22 | 4.46088 | -75.76414 | 3996 ft | 13 kts | 14° |
| 2026-04-25 20:22 | 4.46132 | -75.76410 | 3996 ft | 8 kts | 347° |
| 2026-04-25 20:22 | 4.46157 | -75.76402 | 3989 ft | 4 kts | 148° |
| 2026-04-25 20:22 | 4.46125 | -75.76407 | 3990 ft | 5 kts | 193° |
| 2026-04-25 20:23 | 4.46009 | -75.76434 | 3991 ft | 46 kts | 193° |
| 2026-04-25 20:23 | 4.45448 | -75.76569 | 3987 ft | 116 kts | 193° |
| 2026-04-25 20:23 | 4.44474 | -75.76802 | 4021 ft | 166 kts | 193° |
| 2026-04-25 20:23 | 4.43349 | -75.77075 | 4699 ft | 167 kts | 194° |
| 2026-04-25 20:24 | 4.42222 | -75.77345 | 5419 ft | 168 kts | 192° |
| 2026-04-25 20:24 | 4.41014 | -75.77635 | 5734 ft | 189 kts | 192° |
| 2026-04-25 20:24 | 4.39688 | -75.77958 | 6128 ft | 202 kts | 195° |
| 2026-04-25 20:24 | 4.38511 | -75.78729 | 6581 ft | 210 kts | 237° |
| 2026-04-25 20:25 | 4.37915 | -75.80054 | 7234 ft | 209 kts | 251° |
| 2026-04-25 20:25 | 4.37427 | -75.81445 | 7754 ft | 215 kts | 252° |
| 2026-04-25 20:25 | 4.36957 | -75.82861 | 8149 ft | 219 kts | 253° |
| 2026-04-25 20:25 | 4.36472 | -75.84308 | 8571 ft | 219 kts | 252° |
| 2026-04-25 20:26 | 4.35977 | -75.85733 | 9225 ft | 215 kts | 251° |
| 2026-04-25 20:26 | 4.35478 | -75.87151 | 9827 ft | 216 kts | 251° |
| 2026-04-25 20:26 | 4.34975 | -75.88573 | 10361 ft | 217 kts | 251° |
| 2026-04-25 20:26 | 4.34467 | -75.90008 | 10870 ft | 219 kts | 251° |
| 2026-04-25 20:27 | 4.34062 | -75.91482 | 11348 ft | 223 kts | 261° |
| 2026-04-25 20:27 | 4.33815 | -75.93088 | 11518 ft | 243 kts | 262° |
| 2026-04-25 20:27 | 4.33555 | -75.94804 | 11899 ft | 253 kts | 261° |
| 2026-04-25 20:27 | 4.33289 | -75.96553 | 12651 ft | 254 kts | 261° |
| 2026-04-25 20:28 | 4.33021 | -75.98311 | 13410 ft | 256 kts | 261° |
| 2026-04-25 20:28 | 4.32901 | -76.00100 | 14066 ft | 260 kts | 278° |
| 2026-04-25 20:28 | 4.33538 | -76.01796 | 14680 ft | 265 kts | 305° |
| 2026-04-25 20:28 | 4.34937 | -76.03069 | 14995 ft | 284 kts | 334° |
| 2026-04-25 20:29 | 4.36830 | -76.03686 | 15455 ft | 294 kts | 343° |
| 2026-04-25 20:29 | 4.38825 | -76.04237 | 16068 ft | 299 kts | 344° |
| 2026-04-25 20:29 | 4.40896 | -76.04503 | 16690 ft | 304 kts | 3° |
| 2026-04-25 20:29 | 4.42956 | -76.03985 | 17309 ft | 309 kts | 25° |
| 2026-04-25 20:30 | 4.44701 | -76.02705 | 17865 ft | 318 kts | 47° |
| 2026-04-25 20:30 | 4.45880 | -76.00763 | 17990 ft | 339 kts | 72° |
| 2026-04-25 20:30 | 4.46174 | -75.98368 | 18128 ft | 357 kts | 92° |
| 2026-04-25 20:30 | 4.46052 | -75.95824 | 18252 ft | 376 kts | 93° |
| 2026-04-25 20:31 | 4.45877 | -75.93149 | 18464 ft | 390 kts | 95° |
| 2026-04-25 20:31 | 4.45611 | -75.90417 | 18839 ft | 397 kts | 96° |
| 2026-04-25 20:31 | 4.45295 | -75.87659 | 18988 ft | 399 kts | 97° |
| 2026-04-25 20:31 | 4.44961 | -75.84879 | 19026 ft | 405 kts | 97° |
| 2026-04-25 20:32 | 4.44629 | -75.82068 | 19030 ft | 407 kts | 96° |
| 2026-04-25 20:32 | 4.44309 | -75.79247 | 19030 ft | 407 kts | 96° |
| 2026-04-25 20:32 | 4.44001 | -75.76428 | 19028 ft | 407 kts | 96° |
| 2026-04-25 20:32 | 4.43704 | -75.73607 | 19029 ft | 407 kts | 96° |
| 2026-04-25 20:33 | 4.43258 | -75.70848 | 19023 ft | 407 kts | 104° |
| 2026-04-25 20:33 | 4.42536 | -75.68112 | 19029 ft | 406 kts | 105° |
| 2026-04-25 20:33 | 4.41805 | -75.65379 | 19032 ft | 406 kts | 105° |
| 2026-04-25 20:33 | 4.41309 | -75.63532 | 19036 ft | 407 kts | 105° |
| 2026-04-25 20:34 | 4.40337 | -75.59911 | 19041 ft | 406 kts | 105° |
| 2026-04-25 20:34 | 4.39601 | -75.57175 | 19046 ft | 406 kts | 105° |
| 2026-04-25 20:34 | 4.38882 | -75.54439 | 19042 ft | 406 kts | 102° |
| 2026-04-25 20:34 | 4.38562 | -75.51631 | 19047 ft | 405 kts | 90° |
| 2026-04-25 20:35 | 4.38821 | -75.48828 | 19041 ft | 405 kts | 78° |
| 2026-04-25 20:35 | 4.39646 | -75.46129 | 19038 ft | 404 kts | 66° |
| 2026-04-25 20:35 | 4.40942 | -75.43636 | 19023 ft | 404 kts | 60° |
| 2026-04-25 20:35 | 4.42317 | -75.41177 | 19016 ft | 404 kts | 60° |
| 2026-04-25 20:36 | 4.43685 | -75.38718 | 19019 ft | 404 kts | 60° |
| 2026-04-25 20:36 | 4.45050 | -75.36258 | 19008 ft | 405 kts | 60° |
| 2026-04-25 20:36 | 4.46420 | -75.33791 | 18989 ft | 405 kts | 60° |
| 2026-04-25 20:36 | 4.47789 | -75.31326 | 18983 ft | 405 kts | 60° |
| 2026-04-25 20:37 | 4.49144 | -75.28889 | 18979 ft | 405 kts | 60° |
| 2026-04-25 20:37 | 4.50512 | -75.26426 | 18976 ft | 405 kts | 60° |
| 2026-04-25 20:37 | 4.51882 | -75.23960 | 18974 ft | 405 kts | 60° |
| 2026-04-25 20:37 | 4.53251 | -75.21496 | 18970 ft | 405 kts | 60° |
| 2026-04-25 20:38 | 4.54623 | -75.19028 | 18963 ft | 405 kts | 60° |
| 2026-04-25 20:38 | 4.55993 | -75.16565 | 18963 ft | 405 kts | 60° |
| 2026-04-25 20:38 | 4.57364 | -75.14098 | 18968 ft | 405 kts | 60° |
| 2026-04-25 20:38 | 4.58735 | -75.11630 | 18971 ft | 405 kts | 60° |
| 2026-04-25 20:39 | 4.60107 | -75.09163 | 18969 ft | 405 kts | 60° |
| 2026-04-25 20:39 | 4.61477 | -75.06696 | 18972 ft | 405 kts | 60° |
| 2026-04-25 20:39 | 4.62845 | -75.04230 | 18952 ft | 405 kts | 60° |
| 2026-04-25 20:39 | 4.63771 | -75.02562 | 18955 ft | 405 kts | 60° |
| 2026-04-25 20:40 | 4.65586 | -74.99296 | 18948 ft | 405 kts | 60° |
| 2026-04-25 20:40 | 4.66954 | -74.96831 | 18951 ft | 404 kts | 60° |
| 2026-04-25 20:40 | 4.68317 | -74.94377 | 18867 ft | 399 kts | 60° |
| 2026-04-25 20:40 | 4.69647 | -74.91980 | 18638 ft | 388 kts | 60° |
| 2026-04-25 20:41 | 4.70943 | -74.89644 | 18448 ft | 377 kts | 60° |
| 2026-04-25 20:41 | 4.72206 | -74.87366 | 18130 ft | 371 kts | 60° |
| 2026-04-25 20:41 | 4.73457 | -74.85110 | 17629 ft | 370 kts | 60° |
| 2026-04-25 20:41 | 4.74702 | -74.82867 | 17225 ft | 365 kts | 60° |
| 2026-04-25 20:42 | 4.75917 | -74.80679 | 17097 ft | 353 kts | 60° |
| 2026-04-25 20:42 | 4.77036 | -74.78525 | 16926 ft | 344 kts | 67° |
| 2026-04-25 20:42 | 4.77898 | -74.76307 | 16572 ft | 340 kts | 69° |
| 2026-04-25 20:42 | 4.78745 | -74.74105 | 16223 ft | 337 kts | 69° |
| 2026-04-25 20:43 | 4.79582 | -74.71925 | 15907 ft | 334 kts | 69° |
| 2026-04-25 20:43 | 4.80417 | -74.69756 | 15596 ft | 332 kts | 69° |
| 2026-04-25 20:43 | 4.81233 | -74.67638 | 15351 ft | 328 kts | 69° |
| 2026-04-25 20:43 | 4.82052 | -74.65514 | 15118 ft | 326 kts | 69° |
| 2026-04-25 20:44 | 4.82867 | -74.63394 | 14884 ft | 325 kts | 69° |
| 2026-04-25 20:44 | 4.83687 | -74.61262 | 14638 ft | 323 kts | 69° |
| 2026-04-25 20:44 | 4.84484 | -74.59189 | 14402 ft | 322 kts | 69° |
| 2026-04-25 20:44 | 4.85290 | -74.57097 | 14163 ft | 321 kts | 69° |
| 2026-04-25 20:45 | 4.86097 | -74.55010 | 13922 ft | 320 kts | 68° |
| 2026-04-25 20:45 | 4.86899 | -74.52933 | 13673 ft | 319 kts | 69° |
| 2026-04-25 20:45 | 4.87696 | -74.50863 | 13422 ft | 317 kts | 69° |
| 2026-04-25 20:45 | 4.88489 | -74.48806 | 13219 ft | 316 kts | 68° |
| 2026-04-25 20:46 | 4.89275 | -74.46769 | 12990 ft | 311 kts | 69° |
| 2026-04-25 20:46 | 4.90018 | -74.44771 | 12864 ft | 301 kts | 74° |
| 2026-04-25 20:46 | 4.90215 | -74.42719 | 12754 ft | 293 kts | 96° |
| 2026-04-25 20:46 | 4.89671 | -74.40786 | 12538 ft | 288 kts | 117° |
| 2026-04-25 20:47 | 4.88459 | -74.39187 | 12129 ft | 291 kts | 139° |
| 2026-04-25 20:47 | 4.86913 | -74.37862 | 11822 ft | 290 kts | 135° |
| 2026-04-25 20:47 | 4.85683 | -74.36357 | 11785 ft | 267 kts | 126° |
| 2026-04-25 20:47 | 4.84645 | -74.34900 | 11834 ft | 250 kts | 126° |
| 2026-04-25 20:48 | 4.83622 | -74.33524 | 11862 ft | 244 kts | 127° |
| 2026-04-25 20:48 | 4.82596 | -74.32169 | 11822 ft | 243 kts | 127° |
| 2026-04-25 20:48 | 4.81608 | -74.30865 | 11598 ft | 234 kts | 127° |
| 2026-04-25 20:48 | 4.80638 | -74.29584 | 11320 ft | 228 kts | 127° |
| 2026-04-25 20:49 | 4.79691 | -74.28333 | 11058 ft | 222 kts | 127° |
| 2026-04-25 20:49 | 4.78768 | -74.27114 | 10810 ft | 217 kts | 127° |
| 2026-04-25 20:49 | 4.77865 | -74.25921 | 10552 ft | 213 kts | 127° |
| 2026-04-25 20:49 | 4.76978 | -74.24748 | 10313 ft | 209 kts | 127° |
| 2026-04-25 20:50 | 4.76103 | -74.23594 | 10086 ft | 206 kts | 127° |
| 2026-04-25 20:50 | 4.75247 | -74.22462 | 9819 ft | 200 kts | 127° |
| 2026-04-25 20:50 | 4.74438 | -74.21394 | 9626 ft | 184 kts | 127° |
| 2026-04-25 20:50 | 4.73697 | -74.20414 | 9403 ft | 170 kts | 127° |
| 2026-04-25 20:51 | 4.72993 | -74.19485 | 9171 ft | 166 kts | 128° |
| 2026-04-25 20:51 | 4.72302 | -74.18569 | 8897 ft | 163 kts | 128° |
| 2026-04-25 20:51 | 4.71607 | -74.17655 | 8656 ft | 165 kts | 129° |
| 2026-04-25 20:51 | 4.70918 | -74.16737 | 8424 ft | 164 kts | 129° |
| 2026-04-25 20:52 | 4.70271 | -74.15889 | 8363 ft | 135 kts | 127° |
| 2026-04-25 20:52 | 4.69943 | -74.15457 | 8366 ft | 95 kts | 128° |
| 2026-04-25 20:52 | 4.69743 | -74.15168 | 8365 ft | 21 kts | 105° |
| 2026-04-25 20:52 | 4.69713 | -74.15023 | 8364 ft | 22 kts | 99° |
| 2026-04-25 20:53 | 4.69697 | -74.14901 | 8365 ft | 13 kts | 95° |
| 2026-04-25 20:53 | 4.69724 | -74.14832 | 8365 ft | 9 kts | 48° |
| 2026-04-25 20:53 | 4.69770 | -74.14795 | 8366 ft | 9 kts | 37° |
| 2026-04-25 20:53 | 4.69825 | -74.14753 | 8366 ft | 11 kts | 36° |
| 2026-04-25 20:54 | 4.69897 | -74.14700 | 8366 ft | 14 kts | 37° |
| 2026-04-25 20:54 | 4.69983 | -74.14635 | 8366 ft | 15 kts | 37° |
| 2026-04-25 20:54 | 4.70041 | -74.14584 | 8366 ft | 8 kts | 68° |
| 2026-04-25 20:54 | 4.70021 | -74.14546 | 8366 ft | 5 kts | 127° |
| 2026-04-25 20:55 | 4.70002 | -74.14520 | 8366 ft | 5 kts | 127° |
| 2026-04-25 20:55 | 4.69976 | -74.14487 | 8366 ft | 7 kts | 127° |
| 2026-04-25 20:55 | 4.69940 | -74.14439 | 8366 ft | 9 kts | 127° |
| 2026-04-25 20:55 | 4.69905 | -74.14392 | 8366 ft | 9 kts | 127° |
| 2026-04-25 20:56 | 4.69868 | -74.14343 | 8366 ft | 7 kts | 127° |
| 2026-04-25 20:56 | 4.69838 | -74.14332 | 8366 ft | 5 kts | 212° |
| 2026-04-25 20:56 | 4.69812 | -74.14359 | 8366 ft | 4 kts | 226° |
| 2026-04-25 20:56 | 4.69807 | -74.14365 | 8366 ft | 0 kts | 226° |